Time;durP1;ratioP1;P1;durP2;ratioP2;P2;SDS_P1;SDS_P2;PMS_P1;PMS_P2;Temp;Humidity;BMP_temperature;BMP_pressure;BME280_temperature;BME280_humidity;BME280_pressure;Samples;Min_cycle;Max_cycle;Signal;HPM_P1;HPM_P2
2023/11/22 00:01:26;;;;;;;11.20;6.45;;;;;;;;;;4964785;28;20073;-76
2023/11/22 00:03:51;;;;;;;9.13;4.88;;;;;;;;;;4967626;28;20380;-76
2023/11/22 00:06:20;;;;;;;10.30;5.95;;;;;;;;;;4964396;28;20120;-76
2023/11/22 00:08:45;;;;;;;10.90;5.32;;;;;;;;;;4983951;28;20052;-76
2023/11/22 00:11:10;;;;;;;10.38;5.88;;;;;;;;;;4961481;28;20121;-76
2023/11/22 00:13:35;;;;;;;10.73;6.03;;;;;;;;;;4967552;28;20027;-75
2023/11/22 00:16:00;;;;;;;11.23;5.55;;;;;;;;;;4974334;28;20414;-76
2023/11/22 00:18:26;;;;;;;11.13;5.75;;;;;;;;;;4967142;28;20034;-76
2023/11/22 00:20:51;;;;;;;11.23;6.40;;;;;;;;;;4965497;28;20081;-76
2023/11/22 00:23:16;;;;;;;10.95;6.40;;;;;;;;;;4962014;28;20035;-75
2023/11/22 00:25:41;;;;;;;8.55;5.10;;;;;;;;;;4962326;28;20034;-76
2023/11/22 00:28:07;;;;;;;10.10;5.63;;;;;;;;;;4964395;28;20058;-76
2023/11/22 00:30:32;;;;;;;11.50;6.00;;;;;;;;;;4960554;28;20110;-75
2023/11/22 00:32:57;;;;;;;8.20;5.32;;;;;;;;;;4966952;28;20027;-76
2023/11/22 00:35:23;;;;;;;8.52;4.68;;;;;;;;;;4966965;28;20042;-76
2023/11/22 00:37:48;;;;;;;9.93;5.32;;;;;;;;;;4971295;28;20038;-75
2023/11/22 00:40:13;;;;;;;9.75;4.93;;;;;;;;;;4977603;28;20039;-76
2023/11/22 00:42:40;;;;;;;7.95;4.90;;;;;;;;;;4970617;28;20027;-75
2023/11/22 00:45:06;;;;;;;9.18;5.18;;;;;;;;;;4969594;28;20106;-75
2023/11/22 00:47:32;;;;;;;9.95;5.43;;;;;;;;;;4970415;28;20506;-76
2023/11/22 00:49:57;;;;;;;8.93;5.40;;;;;;;;;;4984976;28;20043;-75
2023/11/22 00:52:23;;;;;;;11.93;5.38;;;;;;;;;;4965329;28;20035;-75
2023/11/22 00:54:48;;;;;;;11.35;4.80;;;;;;;;;;4963575;28;20066;-75
2023/11/22 00:57:13;;;;;;;10.57;5.68;;;;;;;;;;4970041;28;20045;-75
2023/11/22 00:59:38;;;;;;;7.80;4.70;;;;;;;;;;4971056;28;20498;-75
2023/11/22 01:02:05;;;;;;;11.38;5.15;;;;;;;;;;4968721;28;20069;-76
2023/11/22 01:04:33;;;;;;;8.85;4.75;;;;;;;;;;4970148;28;20034;-76
2023/11/22 01:07:00;;;;;;;8.73;4.68;;;;;;;;;;4963309;28;20034;-75
2023/11/22 01:09:25;;;;;;;8.63;5.13;;;;;;;;;;4973016;28;20540;-75
2023/11/22 01:11:50;;;;;;;8.65;4.90;;;;;;;;;;4970147;28;20029;-75
2023/11/22 01:14:16;;;;;;;8.23;4.88;;;;;;;;;;4968752;28;20027;-76
2023/11/22 01:16:43;;;;;;;9.68;5.30;;;;;;;;;;4970488;28;20039;-76
2023/11/22 01:19:08;;;;;;;8.00;3.95;;;;;;;;;;4981031;28;20070;-76
2023/11/22 01:21:34;;;;;;;8.88;5.03;;;;;;;;;;4970010;28;20511;-75
2023/11/22 01:23:59;;;;;;;9.45;5.30;;;;;;;;;;4960630;28;20031;-76
2023/11/22 01:26:25;;;;;;;8.80;4.40;;;;;;;;;;4968896;28;20067;-76
2023/11/22 01:28:50;;;;;;;8.07;4.20;;;;;;;;;;4983368;28;20018;-77
2023/11/22 01:31:20;;;;;;;8.07;4.30;;;;;;;;;;4969403;28;20103;-76
2023/11/22 01:33:46;;;;;;;10.48;4.75;;;;;;;;;;4970199;28;20038;-75
2023/11/22 01:36:12;;;;;;;10.43;5.55;;;;;;;;;;4977413;28;20081;-76
2023/11/22 01:38:39;;;;;;;8.30;4.75;;;;;;;;;;4984928;28;20031;-76
2023/11/22 01:41:04;;;;;;;11.00;5.60;;;;;;;;;;4968483;28;20027;-76
2023/11/22 01:43:29;;;;;;;14.48;6.18;;;;;;;;;;4991028;28;20034;-76
2023/11/22 01:45:55;;;;;;;8.63;4.68;;;;;;;;;;4965695;28;20521;-76
2023/11/22 01:48:20;;;;;;;11.30;5.43;;;;;;;;;;4963538;28;20110;-76
2023/11/22 01:50:46;;;;;;;10.38;4.88;;;;;;;;;;4974283;28;20495;-76
2023/11/22 01:53:12;;;;;;;9.38;5.65;;;;;;;;;;4967280;28;20034;-76
2023/11/22 01:55:39;;;;;;;8.80;4.43;;;;;;;;;;4972427;28;20449;-76
2023/11/22 01:58:04;;;;;;;8.13;4.88;;;;;;;;;;4967839;28;20034;-76
2023/11/22 02:00:33;;;;;;;10.05;5.63;;;;;;;;;;4980113;28;20030;-75
2023/11/22 02:03:00;;;;;;;8.23;4.70;;;;;;;;;;4967162;28;20045;-76
2023/11/22 02:05:25;;;;;;;7.88;4.10;;;;;;;;;;4985232;28;20035;-75
2023/11/22 02:07:52;;;;;;;10.40;5.55;;;;;;;;;;4969701;28;20034;-76
2023/11/22 02:10:17;;;;;;;8.93;4.97;;;;;;;;;;4983228;28;20043;-75
2023/11/22 02:12:42;;;;;;;7.95;4.85;;;;;;;;;;4969196;28;20079;-76
2023/11/22 02:15:08;;;;;;;12.25;5.72;;;;;;;;;;4966255;28;20414;-76
2023/11/22 02:17:34;;;;;;;9.90;5.00;;;;;;;;;;4968102;28;20161;-75
2023/11/22 02:19:59;;;;;;;11.10;6.45;;;;;;;;;;4969809;28;20022;-75
2023/11/22 02:22:24;;;;;;;8.13;5.50;;;;;;;;;;4968482;28;20551;-76
2023/11/22 02:24:49;;;;;;;12.55;6.28;;;;;;;;;;4968765;28;20446;-76
2023/11/22 02:27:15;;;;;;;12.88;5.13;;;;;;;;;;4980957;28;20031;-76
2023/11/22 02:29:40;;;;;;;10.40;5.55;;;;;;;;;;4974664;28;20479;-76
2023/11/22 02:32:05;;;;;;;10.50;5.43;;;;;;;;;;4962849;28;20034;-75
2023/11/22 02:34:31;;;;;;;10.20;5.43;;;;;;;;;;4966772;28;20023;-76
2023/11/22 02:36:56;;;;;;;16.30;5.80;;;;;;;;;;4968489;28;20368;-76
2023/11/22 02:39:24;;;;;;;12.15;6.38;;;;;;;;;;4978087;28;20057;-75
2023/11/22 02:41:49;;;;;;;9.77;5.55;;;;;;;;;;4964754;28;20127;-75
2023/11/22 02:44:17;;;;;;;10.82;6.57;;;;;;;;;;4961772;28;20114;-76
2023/11/22 02:46:42;;;;;;;12.48;6.68;;;;;;;;;;4962196;28;20037;-76
2023/11/22 02:49:09;;;;;;;10.70;5.65;;;;;;;;;;4984322;28;20040;-76
2023/11/22 02:51:36;;;;;;;12.05;6.43;;;;;;;;;;4978765;28;20393;-76
2023/11/22 02:54:02;;;;;;;10.52;6.03;;;;;;;;;;4965368;28;20019;-75
2023/11/22 02:56:27;;;;;;;12.13;6.18;;;;;;;;;;5010822;28;20039;-76
2023/11/22 02:58:52;;;;;;;13.13;7.07;;;;;;;;;;4969044;28;20019;-76
2023/11/22 03:01:17;;;;;;;11.07;6.63;;;;;;;;;;4962244;28;20035;-76
2023/11/22 03:03:43;;;;;;;10.02;5.93;;;;;;;;;;4968255;28;20114;-76
2023/11/22 03:06:08;;;;;;;13.15;6.30;;;;;;;;;;4966664;28;20035;-76
2023/11/22 03:08:34;;;;;;;11.52;5.93;;;;;;;;;;4965907;28;20031;-75
2023/11/22 03:13:43;;;;;;;13.68;7.15;;;;;;;;;;4962321;28;20038;-75
2023/11/22 03:16:10;;;;;;;13.18;5.80;;;;;;;;;;4961914;28;20037;-76
2023/11/22 03:18:36;;;;;;;9.85;5.47;;;;;;;;;;4968113;28;20510;-76
2023/11/22 03:21:01;;;;;;;11.75;7.15;;;;;;;;;;4977707;28;20031;-76
2023/11/22 03:23:26;;;;;;;18.60;10.65;;;;;;;;;;4964246;28;20096;-76
2023/11/22 03:25:51;;;;;;;17.52;9.70;;;;;;;;;;4962740;28;20031;-76
2023/11/22 03:28:17;;;;;;;10.82;6.60;;;;;;;;;;4959993;28;20035;-76
2023/11/22 03:30:42;;;;;;;14.48;7.82;;;;;;;;;;4982023;28;20027;-75
2023/11/22 03:33:07;;;;;;;14.57;8.52;;;;;;;;;;4974135;28;20030;-76
2023/11/22 03:35:33;;;;;;;13.18;7.10;;;;;;;;;;4967895;28;20049;-76
2023/11/22 03:37:58;;;;;;;13.52;6.10;;;;;;;;;;4972229;28;20069;-75
2023/11/22 03:40:23;;;;;;;11.95;5.47;;;;;;;;;;4966135;28;20051;-76
2023/11/22 03:42:48;;;;;;;10.05;5.75;;;;;;;;;;4966270;28;20027;-76
2023/11/22 03:45:14;;;;;;;11.23;5.80;;;;;;;;;;4966871;28;20565;-76
2023/11/22 03:47:39;;;;;;;11.07;6.03;;;;;;;;;;4967596;28;20023;-76
2023/11/22 03:50:05;;;;;;;11.80;6.65;;;;;;;;;;4970514;28;20061;-75
2023/11/22 03:52:31;;;;;;;12.88;6.68;;;;;;;;;;4967429;28;20509;-75
2023/11/22 03:54:57;;;;;;;11.50;6.28;;;;;;;;;;4964322;28;20026;-76
2023/11/22 03:57:22;;;;;;;11.15;6.35;;;;;;;;;;4966411;28;20036;-77
2023/11/22 03:59:48;;;;;;;12.52;7.03;;;;;;;;;;4978709;28;20041;-75
2023/11/22 04:02:13;;;;;;;13.73;6.30;;;;;;;;;;4945077;28;20046;-75
2023/11/22 04:04:39;;;;;;;12.18;6.72;;;;;;;;;;4965047;28;20034;-74
2023/11/22 04:07:05;;;;;;;14.13;6.22;;;;;;;;;;4961754;28;20031;-76
2023/11/22 04:09:30;;;;;;;11.50;6.55;;;;;;;;;;4972639;28;20026;-76
2023/11/22 04:11:55;;;;;;;12.43;6.53;;;;;;;;;;4964723;28;20126;-75
2023/11/22 04:14:21;;;;;;;13.07;6.55;;;;;;;;;;4979335;28;20454;-75
2023/11/22 04:16:46;;;;;;;12.02;6.05;;;;;;;;;;4970657;28;20062;-75
2023/11/22 04:19:12;;;;;;;14.85;6.63;;;;;;;;;;4982219;28;20114;-76
2023/11/22 04:21:37;;;;;;;15.25;7.75;;;;;;;;;;4970862;28;20339;-75
2023/11/22 04:24:02;;;;;;;12.95;7.07;;;;;;;;;;4962325;28;20035;-76
2023/11/22 04:26:27;;;;;;;12.23;6.57;;;;;;;;;;4986961;28;20039;-77
2023/11/22 04:28:52;;;;;;;17.30;6.78;;;;;;;;;;4972009;28;20403;-76
2023/11/22 04:31:18;;;;;;;14.80;7.22;;;;;;;;;;4972659;28;20035;-76
2023/11/22 04:33:43;;;;;;;12.80;7.60;;;;;;;;;;4967474;28;20056;-76
2023/11/22 04:36:08;;;;;;;14.20;6.40;;;;;;;;;;4963017;28;20035;-76
2023/11/22 04:38:34;;;;;;;12.32;6.68;;;;;;;;;;4963109;28;20084;-75
2023/11/22 04:40:59;;;;;;;12.02;7.07;;;;;;;;;;4969246;28;20034;-75
2023/11/22 04:43:24;;;;;;;15.27;7.25;;;;;;;;;;4964519;28;20549;-76
2023/11/22 04:45:49;;;;;;;12.13;7.15;;;;;;;;;;4964190;28;20027;-76
2023/11/22 04:48:15;;;;;;;13.27;7.18;;;;;;;;;;4960155;28;20058;-76
2023/11/22 04:50:40;;;;;;;12.20;6.82;;;;;;;;;;4967445;28;20605;-76
2023/11/22 04:53:06;;;;;;;15.85;7.10;;;;;;;;;;4957888;28;20036;-77
2023/11/22 04:55:31;;;;;;;12.48;7.40;;;;;;;;;;4964189;28;20038;-77
2023/11/22 04:57:56;;;;;;;16.08;7.68;;;;;;;;;;4958581;28;20039;-77
2023/11/22 05:00:24;;;;;;;13.05;7.32;;;;;;;;;;4960255;28;20093;-76
2023/11/22 05:02:49;;;;;;;13.15;6.93;;;;;;;;;;4958041;28;20036;-76
2023/11/22 05:05:15;;;;;;;14.55;6.85;;;;;;;;;;4960001;28;20113;-77
2023/11/22 05:07:40;;;;;;;14.60;8.18;;;;;;;;;;4960240;28;20030;-77
2023/11/22 05:10:05;;;;;;;12.07;7.28;;;;;;;;;;4960525;28;20038;-77
2023/11/22 05:12:31;;;;;;;12.90;7.75;;;;;;;;;;4976335;28;20029;-77
2023/11/22 05:14:56;;;;;;;13.68;7.50;;;;;;;;;;4971511;28;20031;-76
2023/11/22 05:17:21;;;;;;;15.40;8.20;;;;;;;;;;4955050;28;20376;-76
2023/11/22 05:19:46;;;;;;;12.68;7.78;;;;;;;;;;4963258;28;20035;-76
2023/11/22 05:22:12;;;;;;;17.50;9.35;;;;;;;;;;4980498;28;20039;-76
2023/11/22 05:24:40;;;;;;;23.40;11.55;;;;;;;;;;4960226;28;20225;-76
2023/11/22 05:27:06;;;;;;;19.70;11.15;;;;;;;;;;4971254;28;20027;-75
2023/11/22 05:29:31;;;;;;;19.92;10.95;;;;;;;;;;4979561;28;20491;-76
2023/11/22 05:31:56;;;;;;;18.75;11.07;;;;;;;;;;4959489;28;20027;-76
2023/11/22 05:34:22;;;;;;;16.98;10.48;;;;;;;;;;4960054;28;20031;-75
2023/11/22 05:36:48;;;;;;;16.45;9.32;;;;;;;;;;4960458;28;20038;-76
2023/11/22 05:39:14;;;;;;;25.70;15.02;;;;;;;;;;4972878;28;20036;-76
2023/11/22 05:41:39;;;;;;;18.35;9.65;;;;;;;;;;4976286;28;20050;-76
2023/11/22 05:44:04;;;;;;;16.30;8.95;;;;;;;;;;4958457;28;20035;-76
2023/11/22 05:46:29;;;;;;;14.20;7.82;;;;;;;;;;4960110;28;20035;-76
2023/11/22 05:48:54;;;;;;;16.33;8.85;;;;;;;;;;4981093;28;20031;-75
2023/11/22 05:51:20;;;;;;;15.45;8.73;;;;;;;;;;4975702;28;20027;-76
2023/11/22 05:53:45;;;;;;;15.88;9.23;;;;;;;;;;4970328;28;20380;-76
2023/11/22 05:56:11;;;;;;;14.75;8.80;;;;;;;;;;4964256;28;20042;-76
2023/11/22 05:58:39;;;;;;;15.25;8.90;;;;;;;;;;4975241;28;20113;-77
2023/11/22 06:01:05;;;;;;;14.30;9.00;;;;;;;;;;4973887;28;20088;-76
2023/11/22 06:03:30;;;;;;;19.10;10.50;;;;;;;;;;4980105;28;20070;-76
2023/11/22 06:05:57;;;;;;;16.73;9.35;;;;;;;;;;4962885;28;20491;-76
2023/11/22 06:08:22;;;;;;;15.10;9.15;;;;;;;;;;4976344;28;20427;-76
2023/11/22 06:10:47;;;;;;;15.07;9.38;;;;;;;;;;4973942;28;20034;-77
2023/11/22 06:13:12;;;;;;;17.33;9.27;;;;;;;;;;4958596;28;20403;-76
2023/11/22 06:15:38;;;;;;;18.92;10.15;;;;;;;;;;4961348;28;20043;-76
2023/11/22 06:18:03;;;;;;;13.82;8.23;;;;;;;;;;4955080;28;20035;-76
2023/11/22 06:20:29;;;;;;;15.70;9.18;;;;;;;;;;4969418;28;20039;-76
2023/11/22 06:22:54;;;;;;;16.73;9.82;;;;;;;;;;4980489;28;20023;-76
2023/11/22 06:25:19;;;;;;;15.70;9.32;;;;;;;;;;4962480;28;20046;-76
2023/11/22 06:27:44;;;;;;;16.70;9.27;;;;;;;;;;4964943;28;20037;-76
2023/11/22 06:30:10;;;;;;;18.75;10.38;;;;;;;;;;4963655;28;20030;-76
2023/11/22 06:32:35;;;;;;;18.02;10.00;;;;;;;;;;4965335;28;20031;-76
2023/11/22 06:35:00;;;;;;;18.45;10.48;;;;;;;;;;4967804;28;20454;-76
2023/11/22 06:37:25;;;;;;;20.00;11.20;;;;;;;;;;4964053;28;20035;-76
2023/11/22 06:39:51;;;;;;;18.95;10.40;;;;;;;;;;4970948;28;20054;-76
2023/11/22 06:42:16;;;;;;;16.35;10.05;;;;;;;;;;4960647;28;20073;-76
2023/11/22 06:44:42;;;;;;;19.30;9.82;;;;;;;;;;4976124;28;20491;-76
2023/11/22 06:47:07;;;;;;;15.32;9.10;;;;;;;;;;4968234;28;20406;-76
2023/11/22 06:49:32;;;;;;;17.17;9.60;;;;;;;;;;4971952;28;20035;-76
2023/11/22 06:51:58;;;;;;;15.82;9.55;;;;;;;;;;4965483;28;20039;-76
2023/11/22 06:54:23;;;;;;;14.92;8.54;;;;;;;;;;4962425;28;20507;-76
2023/11/22 06:56:49;;;;;;;16.70;9.45;;;;;;;;;;4968241;28;20058;-76
2023/11/22 06:59:14;;;;;;;17.55;9.27;;;;;;;;;;4969101;28;20038;-76
2023/11/22 07:01:39;;;;;;;16.38;9.27;;;;;;;;;;4977474;28;20031;-76
2023/11/22 07:04:06;;;;;;;15.15;8.88;;;;;;;;;;4966182;28;20495;-76
2023/11/22 07:06:31;;;;;;;14.90;9.15;;;;;;;;;;4963994;28;20046;-76
2023/11/22 07:08:58;;;;;;;16.73;9.48;;;;;;;;;;4967462;28;20034;-76
2023/11/22 07:11:23;;;;;;;16.13;8.77;;;;;;;;;;4963964;28;20058;-76
2023/11/22 07:13:48;;;;;;;16.95;8.20;;;;;;;;;;4966962;28;20059;-76
2023/11/22 07:16:14;;;;;;;16.30;8.80;;;;;;;;;;4971038;28;20398;-76
2023/11/22 07:18:40;;;;;;;16.35;9.32;;;;;;;;;;4968039;28;20489;-76
2023/11/22 07:21:05;;;;;;;20.95;10.93;;;;;;;;;;4964634;28;20065;-76
2023/11/22 07:23:30;;;;;;;15.05;7.68;;;;;;;;;;4962291;28;20594;-76
2023/11/22 07:25:56;;;;;;;16.83;8.80;;;;;;;;;;4968155;28;20031;-76
2023/11/22 07:28:21;;;;;;;16.35;9.27;;;;;;;;;;4968301;28;20034;-76
2023/11/22 07:30:48;;;;;;;14.63;8.95;;;;;;;;;;4965572;28;20415;-76
2023/11/22 07:33:14;;;;;;;15.15;8.57;;;;;;;;;;4963725;28;20038;-76
2023/11/22 07:35:40;;;;;;;19.08;9.65;;;;;;;;;;4963387;28;20030;-76
2023/11/22 07:38:07;;;;;;;16.67;9.85;;;;;;;;;;4962183;28;20046;-75
2023/11/22 07:40:34;;;;;;;17.75;8.93;;;;;;;;;;4983312;28;20030;-76
2023/11/22 07:42:59;;;;;;;18.35;10.15;;;;;;;;;;4971584;28;20038;-76
2023/11/22 07:45:24;;;;;;;16.40;9.52;;;;;;;;;;4980710;28;20035;-76
2023/11/22 07:47:50;;;;;;;16.08;9.20;;;;;;;;;;4968467;28;20035;-76
2023/11/22 07:50:15;;;;;;;16.27;9.65;;;;;;;;;;4972553;28;20110;-76
2023/11/22 07:52:41;;;;;;;17.52;10.02;;;;;;;;;;4964858;28;20062;-76
2023/11/22 07:55:07;;;;;;;14.85;8.30;;;;;;;;;;4967394;28;20539;-76
2023/11/22 07:57:33;;;;;;;16.70;9.68;;;;;;;;;;4969771;28;20083;-76
2023/11/22 08:00:00;;;;;;;16.50;9.30;;;;;;;;;;4979417;28;20043;-76
2023/11/22 08:02:26;;;;;;;18.77;10.60;;;;;;;;;;4975930;28;20163;-76
2023/11/22 08:04:52;;;;;;;17.30;10.35;;;;;;;;;;4965980;28;20034;-76
2023/11/22 08:07:18;;;;;;;16.15;8.52;;;;;;;;;;4961776;28;20131;-76
2023/11/22 08:09:43;;;;;;;19.02;9.70;;;;;;;;;;4983002;28;20100;-76
2023/11/22 08:12:11;;;;;;;16.20;8.32;;;;;;;;;;4991768;28;20042;-76
2023/11/22 08:14:36;;;;;;;17.98;10.35;;;;;;;;;;4983051;28;20026;-76
2023/11/22 08:17:01;;;;;;;17.00;9.23;;;;;;;;;;4965859;28;20087;-76
2023/11/22 08:19:27;;;;;;;16.42;9.48;;;;;;;;;;4970178;28;20415;-76
2023/11/22 08:21:53;;;;;;;15.05;8.95;;;;;;;;;;4986851;28;20035;-76
2023/11/22 08:24:19;;;;;;;17.95;9.63;;;;;;;;;;4969962;28;20039;-76
2023/11/22 08:26:44;;;;;;;15.63;8.80;;;;;;;;;;4966607;28;20168;-76
2023/11/22 08:29:11;;;;;;;16.83;8.38;;;;;;;;;;4966521;28;20061;-76
2023/11/22 08:31:36;;;;;;;14.02;8.20;;;;;;;;;;4975510;28;20026;-76
2023/11/22 08:34:04;;;;;;;16.70;7.20;;;;;;;;;;4964989;28;20026;-76
2023/11/22 08:36:30;;;;;;;15.68;8.60;;;;;;;;;;4967430;28;20046;-76
2023/11/22 08:38:58;;;;;;;16.48;8.00;;;;;;;;;;4970394;28;20093;-76
2023/11/22 08:41:24;;;;;;;13.45;7.18;;;;;;;;;;4993424;28;20043;-76
2023/11/22 08:43:49;;;;;;;13.88;7.82;;;;;;;;;;4967720;28;20034;-76
2023/11/22 08:46:14;;;;;;;14.75;7.28;;;;;;;;;;4962801;28;20038;-76
2023/11/22 08:48:41;;;;;;;19.70;10.20;;;;;;;;;;4964543;28;20039;-76
2023/11/22 08:51:07;;;;;;;12.90;7.45;;;;;;;;;;4983381;28;20046;-76
2023/11/22 08:53:35;;;;;;;15.88;8.38;;;;;;;;;;4968430;28;20038;-76
2023/11/22 08:56:00;;;;;;;12.95;7.05;;;;;;;;;;4966185;28;20520;-76
2023/11/22 08:58:25;;;;;;;15.43;7.22;;;;;;;;;;4964765;28;20115;-76
2023/11/22 09:00:50;;;;;;;13.50;7.50;;;;;;;;;;4990650;28;20035;-77
2023/11/22 09:03:16;;;;;;;13.80;7.70;;;;;;;;;;4960760;28;20503;-76
2023/11/22 09:05:46;;;;;;;13.48;7.45;;;;;;;;;;4970339;28;20034;-76
2023/11/22 09:08:14;;;;;;;15.20;7.90;;;;;;;;;;4969084;28;20030;-76
2023/11/22 09:10:41;;;;;;;13.73;7.68;;;;;;;;;;4973941;28;20120;-76
2023/11/22 09:13:06;;;;;;;13.88;7.55;;;;;;;;;;4966222;28;20110;-76
2023/11/22 09:15:33;;;;;;;12.50;7.35;;;;;;;;;;4964365;28;20114;-76
2023/11/22 09:17:58;;;;;;;14.10;7.40;;;;;;;;;;4967416;28;20037;-77
2023/11/22 09:20:24;;;;;;;12.55;6.78;;;;;;;;;;4978299;28;20038;-76
2023/11/22 09:22:50;;;;;;;12.40;6.47;;;;;;;;;;4968405;28;20039;-76
2023/11/22 09:25:19;;;;;;;10.95;6.82;;;;;;;;;;4967316;28;20046;-76
2023/11/22 09:27:48;;;;;;;12.77;7.57;;;;;;;;;;4965737;28;20026;-76
2023/11/22 09:30:35;;;;;;;12.65;6.75;;;;;;;;;;4976450;28;20042;-76
2023/11/22 09:33:00;;;;;;;11.00;6.68;;;;;;;;;;4968742;28;20375;-76
2023/11/22 09:35:25;;;;;;;13.23;7.45;;;;;;;;;;4967692;28;20045;-76
2023/11/22 09:37:51;;;;;;;13.43;7.63;;;;;;;;;;4967446;28;20059;-76
2023/11/22 09:40:17;;;;;;;11.55;7.40;;;;;;;;;;4988320;28;20035;-76
2023/11/22 09:42:43;;;;;;;13.30;7.55;;;;;;;;;;4964770;28;20062;-76
2023/11/22 09:45:08;;;;;;;12.88;7.20;;;;;;;;;;4962727;28;20097;-76
2023/11/22 09:47:34;;;;;;;13.38;7.22;;;;;;;;;;4968806;28;20031;-76
2023/11/22 09:50:02;;;;;;;14.98;7.88;;;;;;;;;;4975359;28;20403;-76
2023/11/22 09:52:28;;;;;;;13.68;6.55;;;;;;;;;;4973543;28;20039;-76
2023/11/22 09:54:53;;;;;;;14.20;7.38;;;;;;;;;;4971284;28;20077;-76
2023/11/22 09:57:19;;;;;;;14.23;7.18;;;;;;;;;;4960732;28;20039;-76
2023/11/22 09:59:44;;;;;;;12.73;7.43;;;;;;;;;;4973911;28;20513;-76
2023/11/22 10:02:10;;;;;;;12.10;7.13;;;;;;;;;;4981622;28;20391;-76
2023/11/22 10:04:35;;;;;;;13.95;6.95;;;;;;;;;;4964133;28;20239;-76
2023/11/22 10:07:01;;;;;;;12.85;7.13;;;;;;;;;;4968592;28;20548;-76
2023/11/22 10:09:29;;;;;;;12.18;6.93;;;;;;;;;;4971768;28;20403;-76
2023/11/22 10:11:58;;;;;;;21.42;7.68;;;;;;;;;;4973848;28;20514;-76
2023/11/22 10:14:26;;;;;;;11.48;6.40;;;;;;;;;;4967376;28;20038;-76
2023/11/22 10:16:58;;;;;;;12.85;7.65;;;;;;;;;;4984617;28;20109;-76
2023/11/22 10:19:25;;;;;;;11.88;6.65;;;;;;;;;;4965298;28;20027;-76
2023/11/22 10:22:02;;;;;;;13.27;7.35;;;;;;;;;;4992909;28;20030;-76
2023/11/22 10:24:30;;;;;;;11.73;6.55;;;;;;;;;;4963842;28;20043;-77
2023/11/22 10:27:04;;;;;;;13.02;7.10;;;;;;;;;;4964019;28;20027;-76
2023/11/22 10:29:55;;;;;;;15.30;7.68;;;;;;;;;;4971319;28;20389;-77
2023/11/22 10:32:20;;;;;;;11.52;7.22;;;;;;;;;;4974440;28;20027;-77
2023/11/22 10:34:45;;;;;;;14.18;7.38;;;;;;;;;;4966300;28;20030;-77
2023/11/22 10:37:11;;;;;;;12.32;6.88;;;;;;;;;;4964968;28;20041;-77
2023/11/22 10:39:36;;;;;;;15.75;9.07;;;;;;;;;;4966263;28;20100;-77
2023/11/22 10:42:05;;;;;;;16.55;7.38;;;;;;;;;;4988823;28;20030;-77
2023/11/22 10:44:32;;;;;;;12.38;6.68;;;;;;;;;;4967713;28;20035;-77
2023/11/22 10:46:57;;;;;;;11.80;6.43;;;;;;;;;;4966891;28;20105;-77
2023/11/22 10:49:23;;;;;;;11.98;6.97;;;;;;;;;;4963104;28;20475;-77
2023/11/22 10:51:51;;;;;;;13.40;7.13;;;;;;;;;;4984554;28;20092;-77
2023/11/22 10:54:16;;;;;;;12.52;7.32;;;;;;;;;;4959263;28;20055;-77
2023/11/22 10:56:45;;;;;;;11.07;6.28;;;;;;;;;;4972668;28;20380;-77
2023/11/22 10:59:12;;;;;;;14.32;7.20;;;;;;;;;;4994495;28;20485;-77
2023/11/22 11:01:39;;;;;;;10.32;6.15;;;;;;;;;;4992610;28;20035;-77
2023/11/22 11:04:10;;;;;;;14.38;8.02;;;;;;;;;;4963960;28;20034;-77
2023/11/22 11:06:35;;;;;;;12.65;6.63;;;;;;;;;;4961673;28;20126;-77
2023/11/22 11:09:06;;;;;;;11.88;7.03;;;;;;;;;;4962558;28;20058;-77
2023/11/22 11:11:32;;;;;;;13.52;7.38;;;;;;;;;;4978102;28;20027;-77
2023/11/22 11:13:58;;;;;;;11.80;6.85;;;;;;;;;;4966948;28;20383;-77
2023/11/22 11:16:23;;;;;;;12.05;6.15;;;;;;;;;;4950654;28;20031;-77
2023/11/22 11:18:49;;;;;;;10.63;6.72;;;;;;;;;;4969223;28;20039;-77
2023/11/22 11:21:14;;;;;;;13.32;6.47;;;;;;;;;;4986425;28;20039;-77
2023/11/22 11:23:57;;;;;;;13.48;7.65;;;;;;;;;;4968610;28;20035;-77
2023/11/22 11:26:25;;;;;;;10.23;6.65;;;;;;;;;;4965523;28;20502;-77
2023/11/22 11:28:51;;;;;;;11.68;6.35;;;;;;;;;;4968249;28;20518;-77
2023/11/22 11:31:20;;;;;;;11.95;6.93;;;;;;;;;;4978349;28;20039;-76
2023/11/22 11:33:48;;;;;;;11.98;6.43;;;;;;;;;;4965217;28;20051;-78
2023/11/22 11:36:23;;;;;;;11.23;6.43;;;;;;;;;;4964142;28;20042;-76
2023/11/22 11:38:52;;;;;;;10.18;6.30;;;;;;;;;;4961439;28;20112;-77
2023/11/22 11:41:17;;;;;;;10.38;5.90;;;;;;;;;;4989989;28;20045;-77
2023/11/22 11:43:43;;;;;;;13.35;7.63;;;;;;;;;;4971572;28;20030;-77
2023/11/22 11:46:09;;;;;;;12.25;7.70;;;;;;;;;;4966064;28;20047;-77
2023/11/22 11:48:35;;;;;;;12.05;6.78;;;;;;;;;;4961354;28;20178;-77
2023/11/22 11:51:00;;;;;;;14.25;6.38;;;;;;;;;;4976141;28;20435;-77
2023/11/22 11:53:26;;;;;;;10.55;6.10;;;;;;;;;;4966917;28;20080;-78
2023/11/22 11:55:53;;;;;;;12.05;6.85;;;;;;;;;;4964275;28;20031;-77
2023/11/22 11:58:18;;;;;;;11.73;6.93;;;;;;;;;;4963589;28;20035;-77
2023/11/22 12:00:44;;;;;;;11.77;6.50;;;;;;;;;;4983868;28;20046;-77
2023/11/22 12:03:10;;;;;;;12.20;7.22;;;;;;;;;;4969714;28;20038;-78
2023/11/22 12:05:35;;;;;;;12.82;6.35;;;;;;;;;;4967919;28;20114;-77
2023/11/22 12:08:01;;;;;;;9.48;6.25;;;;;;;;;;4977036;28;20031;-77
2023/11/22 12:10:27;;;;;;;12.85;7.07;;;;;;;;;;4980508;28;20054;-77
2023/11/22 12:12:52;;;;;;;12.68;6.53;;;;;;;;;;4964623;28;20127;-77
2023/11/22 12:15:17;;;;;;;12.95;6.20;;;;;;;;;;4980042;28;20535;-77
2023/11/22 12:17:43;;;;;;;10.50;6.20;;;;;;;;;;4961619;28;20039;-77
2023/11/22 12:20:13;;;;;;;11.07;6.35;;;;;;;;;;4983898;28;20106;-77
2023/11/22 12:22:39;;;;;;;11.55;6.35;;;;;;;;;;4970116;28;20039;-77
2023/11/22 12:25:04;;;;;;;12.25;6.07;;;;;;;;;;4964520;28;20084;-77
2023/11/22 12:27:30;;;;;;;11.38;6.47;;;;;;;;;;4963762;28;20027;-77
2023/11/22 12:29:56;;;;;;;11.32;6.20;;;;;;;;;;4968977;28;20027;-77
2023/11/22 12:32:24;;;;;;;9.73;5.30;;;;;;;;;;4982286;28;20045;-77
2023/11/22 12:34:52;;;;;;;10.60;6.57;;;;;;;;;;4971099;28;20034;-77
2023/11/22 12:37:21;;;;;;;9.77;5.63;;;;;;;;;;4967789;28;20039;-77
2023/11/22 12:39:48;;;;;;;9.60;5.53;;;;;;;;;;4966047;28;20031;-77
2023/11/22 12:42:13;;;;;;;12.77;6.60;;;;;;;;;;4983856;28;20160;-77
2023/11/22 12:44:49;;;;;;;13.40;7.30;;;;;;;;;;4978870;28;20145;-77
2023/11/22 12:47:15;;;;;;;10.95;5.93;;;;;;;;;;4967721;28;20046;-77
2023/11/22 12:49:45;;;;;;;12.38;7.75;;;;;;;;;;4969653;28;20066;-77
2023/11/22 12:52:10;;;;;;;12.13;7.28;;;;;;;;;;4982792;28;20078;-77
2023/11/22 12:54:36;;;;;;;12.05;7.00;;;;;;;;;;4966044;28;20067;-77
2023/11/22 12:57:01;;;;;;;10.25;5.90;;;;;;;;;;4964793;28;20042;-77
2023/11/22 12:59:30;;;;;;;11.98;7.30;;;;;;;;;;4963325;28;20039;-77
2023/11/22 13:01:56;;;;;;;10.95;6.32;;;;;;;;;;4993225;28;20035;-77
2023/11/22 13:04:21;;;;;;;12.45;6.65;;;;;;;;;;4970169;28;20164;-77
2023/11/22 13:06:47;;;;;;;14.07;8.70;;;;;;;;;;4967757;28;20105;-77
2023/11/22 13:09:14;;;;;;;13.20;7.90;;;;;;;;;;4965082;28;20050;-77
2023/11/22 13:11:43;;;;;;;11.13;6.38;;;;;;;;;;4999385;28;20038;-77
2023/11/22 13:14:08;;;;;;;10.65;6.20;;;;;;;;;;4964645;28;20038;-77
2023/11/22 13:16:34;;;;;;;10.23;6.40;;;;;;;;;;4969669;28;20035;-77
2023/11/22 13:18:59;;;;;;;9.13;5.10;;;;;;;;;;4968980;28;20019;-77
2023/11/22 13:21:25;;;;;;;9.10;5.45;;;;;;;;;;4993718;28;20774;-77
2023/11/22 13:23:50;;;;;;;9.85;5.90;;;;;;;;;;4967080;28;20422;-78
2023/11/22 13:26:16;;;;;;;11.27;6.28;;;;;;;;;;4962368;28;20019;-78
2023/11/22 13:28:42;;;;;;;9.50;5.93;;;;;;;;;;4985898;28;20088;-78
2023/11/22 13:31:08;;;;;;;10.35;6.63;;;;;;;;;;5003715;28;20036;-77
2023/11/22 13:33:33;;;;;;;19.63;7.68;;;;;;;;;;4969999;28;20487;-77
2023/11/22 13:35:58;;;;;;;14.70;9.25;;;;;;;;;;4974812;28;20042;-77
2023/11/22 13:38:23;;;;;;;11.25;6.82;;;;;;;;;;4962575;28;20042;-77
2023/11/22 13:40:49;;;;;;;12.25;6.80;;;;;;;;;;4992369;28;20055;-78
2023/11/22 13:43:14;;;;;;;12.60;7.32;;;;;;;;;;4970556;28;20126;-78
2023/11/22 13:45:41;;;;;;;11.85;6.22;;;;;;;;;;4968263;28;20050;-77
2023/11/22 13:48:09;;;;;;;12.88;7.50;;;;;;;;;;4967760;28;20046;-77
2023/11/22 13:50:34;;;;;;;13.30;8.18;;;;;;;;;;4970506;28;20027;-77
2023/11/22 13:52:59;;;;;;;15.30;8.30;;;;;;;;;;4976968;28;20144;-78
2023/11/22 13:55:25;;;;;;;13.95;6.70;;;;;;;;;;4965016;28;20388;-77
2023/11/22 13:57:51;;;;;;;12.80;7.28;;;;;;;;;;4968917;28;20058;-77
2023/11/22 14:00:19;;;;;;;9.93;5.90;;;;;;;;;;4970345;28;20039;-77
2023/11/22 14:02:45;;;;;;;12.73;7.45;;;;;;;;;;4994723;28;20062;-77
2023/11/22 14:05:12;;;;;;;13.52;8.43;;;;;;;;;;5000953;28;20039;-77
2023/11/22 14:07:37;;;;;;;12.43;7.55;;;;;;;;;;4970589;28;20114;-77
2023/11/22 14:10:03;;;;;;;13.15;7.47;;;;;;;;;;4974455;28;20057;-77
2023/11/22 14:12:28;;;;;;;13.57;8.73;;;;;;;;;;4997476;28;20049;-77
2023/11/22 14:14:53;;;;;;;14.27;8.23;;;;;;;;;;4968662;28;20031;-77
2023/11/22 14:17:20;;;;;;;10.75;6.28;;;;;;;;;;4970256;28;20058;-77
2023/11/22 14:19:46;;;;;;;11.77;6.63;;;;;;;;;;4972323;28;20031;-77
2023/11/22 14:22:13;;;;;;;12.07;6.82;;;;;;;;;;4990155;28;20038;-78
2023/11/22 14:24:39;;;;;;;11.50;7.13;;;;;;;;;;4985011;28;20491;-77
2023/11/22 14:27:04;;;;;;;10.73;7.07;;;;;;;;;;4971147;28;20049;-77